N7306E -KSFB
Flight info
| Callsign | N7306E |
|---|---|
| Flight time | N/A |
| Altitude | VFR |
| Route | |
| Aircraft | C172/L-DOV/C |
Departure
| Time | N/A |
|---|---|
| Airport | - |
Arrival
| Time | 2026-05-04 23:18 |
|---|---|
| Airport | Orlando Sanford International Airport (KSFB) |
| Time | Latitude | Longitude | Altitude | Speed | Heading |
|---|---|---|---|---|---|
| 2026-05-04 23:02 | 28.54857 | -81.33925 | 105 ft | 0 kts | 221° |
| 2026-05-04 23:05 | 28.54834 | -81.33923 | 105 ft | 9 kts | 141° |
| 2026-05-04 23:05 | 28.54760 | -81.33835 | 105 ft | 12 kts | 133° |
| 2026-05-04 23:05 | 28.54706 | -81.33759 | 105 ft | 10 kts | 130° |
| 2026-05-04 23:05 | 28.54657 | -81.33692 | 105 ft | 10 kts | 131° |
| 2026-05-04 23:06 | 28.54599 | -81.33617 | 105 ft | 12 kts | 132° |
| 2026-05-04 23:06 | 28.54551 | -81.33621 | 105 ft | 10 kts | 250° |
| 2026-05-04 23:06 | 28.54505 | -81.33736 | 105 ft | 18 kts | 245° |
| 2026-05-04 23:06 | 28.54448 | -81.33883 | 104 ft | 15 kts | 243° |
| 2026-05-04 23:07 | 28.54391 | -81.33920 | 104 ft | 6 kts | 156° |
| 2026-05-04 23:07 | 28.54373 | -81.33911 | 104 ft | 0 kts | 154° |
| 2026-05-04 23:07 | 28.54367 | -81.33908 | 104 ft | 5 kts | 158° |
| 2026-05-04 23:08 | 28.54311 | -81.33865 | 104 ft | 12 kts | 98° |
| 2026-05-04 23:08 | 28.54358 | -81.33728 | 104 ft | 33 kts | 66° |
| 2026-05-04 23:08 | 28.54533 | -81.33277 | 125 ft | 71 kts | 71° |
| 2026-05-04 23:08 | 28.54767 | -81.32684 | 294 ft | 73 kts | 68° |
| 2026-05-04 23:09 | 28.54975 | -81.32130 | 481 ft | 73 kts | 73° |
| 2026-05-04 23:09 | 28.55233 | -81.31565 | 671 ft | 76 kts | 49° |
| 2026-05-04 23:09 | 28.55778 | -81.31243 | 847 ft | 81 kts | 30° |
| 2026-05-04 23:09 | 28.56358 | -81.31072 | 1033 ft | 80 kts | 29° |
| 2026-05-04 23:10 | 28.56936 | -81.30879 | 1196 ft | 82 kts | 24° |
| 2026-05-04 23:10 | 28.57569 | -81.30678 | 1313 ft | 89 kts | 25° |
| 2026-05-04 23:10 | 28.58258 | -81.30496 | 1449 ft | 91 kts | 22° |
| 2026-05-04 23:10 | 28.58948 | -81.30353 | 1557 ft | 96 kts | 20° |
| 2026-05-04 23:11 | 28.59709 | -81.30205 | 1603 ft | 103 kts | 15° |
| 2026-05-04 23:11 | 28.60505 | -81.30057 | 1630 ft | 106 kts | 23° |
| 2026-05-04 23:11 | 28.61243 | -81.29650 | 1596 ft | 106 kts | 40° |
| 2026-05-04 23:11 | 28.61900 | -81.29135 | 1611 ft | 107 kts | 40° |
| 2026-05-04 23:12 | 28.62573 | -81.28635 | 1700 ft | 103 kts | 38° |
| 2026-05-04 23:12 | 28.63292 | -81.28190 | 1651 ft | 111 kts | 33° |
| 2026-05-04 23:12 | 28.64034 | -81.27738 | 1679 ft | 107 kts | 40° |
| 2026-05-04 23:12 | 28.64694 | -81.27203 | 1674 ft | 107 kts | 41° |
| 2026-05-04 23:13 | 28.65416 | -81.26706 | 1667 ft | 111 kts | 32° |
| 2026-05-04 23:13 | 28.66217 | -81.26386 | 1638 ft | 114 kts | 25° |
| 2026-05-04 23:13 | 28.67016 | -81.26032 | 1573 ft | 113 kts | 34° |
| 2026-05-04 23:13 | 28.67730 | -81.25579 | 1576 ft | 110 kts | 36° |
| 2026-05-04 23:14 | 28.68448 | -81.25117 | 1537 ft | 112 kts | 37° |
| 2026-05-04 23:14 | 28.69181 | -81.24661 | 1488 ft | 114 kts | 34° |
| 2026-05-04 23:14 | 28.69990 | -81.24232 | 1416 ft | 117 kts | 28° |
| 2026-05-04 23:14 | 28.70824 | -81.23843 | 1351 ft | 117 kts | 33° |
| 2026-05-04 23:15 | 28.71566 | -81.23307 | 1249 ft | 112 kts | 41° |
| 2026-05-04 23:15 | 28.72242 | -81.22749 | 1232 ft | 103 kts | 43° |
| 2026-05-04 23:15 | 28.72883 | -81.22257 | 1174 ft | 106 kts | 41° |
| 2026-05-04 23:15 | 28.73442 | -81.21628 | 1125 ft | 101 kts | 61° |
| 2026-05-04 23:16 | 28.74092 | -81.21267 | 1144 ft | 105 kts | 353° |
| 2026-05-04 23:16 | 28.74780 | -81.21705 | 1084 ft | 102 kts | 336° |
| 2026-05-04 23:16 | 28.75260 | -81.22374 | 1010 ft | 110 kts | 284° |
| 2026-05-04 23:16 | 28.75245 | -81.23268 | 995 ft | 100 kts | 269° |
| 2026-05-04 23:17 | 28.75271 | -81.24101 | 914 ft | 97 kts | 287° |
| 2026-05-04 23:17 | 28.75724 | -81.24663 | 789 ft | 86 kts | 349° |
| 2026-05-04 23:17 | 28.76311 | -81.24762 | 643 ft | 76 kts | 6° |
| 2026-05-04 23:17 | 28.76807 | -81.24646 | 489 ft | 64 kts | 51° |
| 2026-05-04 23:18 | 28.76987 | -81.24141 | 309 ft | 62 kts | 86° |
| 2026-05-04 23:18 | 28.77003 | -81.23655 | 184 ft | 57 kts | 94° |
| 2026-05-04 23:18 | 28.76996 | -81.23175 | 71 ft | 57 kts | 90° |
| 2026-05-04 23:18 | 28.76996 | -81.22812 | 35 ft | 32 kts | 89° |
| 2026-05-04 23:19 | 28.76994 | -81.22616 | 32 ft | 10 kts | 98° |
| 2026-05-04 23:19 | 28.76953 | -81.22596 | 32 ft | 5 kts | 181° |
| 2026-05-04 23:19 | 28.76918 | -81.22596 | 32 ft | 1 kts | 181° |
| 2026-05-04 23:20 | 28.76917 | -81.22596 | 32 ft | 1 kts | 181° |
| 2026-05-04 23:20 | 28.76887 | -81.22652 | 32 ft | 15 kts | 270° |
| 2026-05-04 23:21 | 28.76886 | -81.22855 | 35 ft | 30 kts | 269° |
| 2026-05-04 23:21 | 28.76887 | -81.23160 | 39 ft | 33 kts | 266° |
| 2026-05-04 23:21 | 28.76885 | -81.23412 | 41 ft | 23 kts | 269° |
| 2026-05-04 23:21 | 28.76885 | -81.23580 | 42 ft | 14 kts | 267° |
| 2026-05-04 23:22 | 28.76939 | -81.23628 | 43 ft | 13 kts | 359° |
| 2026-05-04 23:22 | 28.77111 | -81.23630 | 44 ft | 32 kts | 4° |
| 2026-05-04 23:22 | 28.77345 | -81.23626 | 45 ft | 28 kts | 1° |
| 2026-05-04 23:22 | 28.77524 | -81.23628 | 46 ft | 20 kts | 5° |
| 2026-05-04 23:23 | 28.77655 | -81.23633 | 46 ft | 16 kts | 358° |
| 2026-05-04 23:23 | 28.77758 | -81.23644 | 46 ft | 12 kts | 307° |
| 2026-05-04 23:23 | 28.77764 | -81.23739 | 46 ft | 11 kts | 271° |
| 2026-05-04 23:23 | 28.77764 | -81.23869 | 47 ft | 20 kts | 272° |
| 2026-05-04 23:24 | 28.77763 | -81.24092 | 48 ft | 30 kts | 272° |
| 2026-05-04 23:24 | 28.77765 | -81.24381 | 50 ft | 30 kts | 269° |
| 2026-05-04 23:24 | 28.77762 | -81.24603 | 51 ft | 20 kts | 271° |
| 2026-05-04 23:24 | 28.77764 | -81.24688 | 52 ft | 2 kts | 270° |
| 2026-05-04 23:25 | 28.77817 | -81.24796 | 52 ft | 24 kts | 313° |
| 2026-05-04 23:25 | 28.77852 | -81.24934 | 53 ft | 10 kts | 224° |
| 2026-05-04 23:25 | 28.77812 | -81.24970 | 53 ft | 3 kts | 214° |
| 2026-05-04 23:25 | 28.77799 | -81.24978 | 53 ft | 0 kts | 206° |